Time;durP1;ratioP1;P1;durP2;ratioP2;P2;SDS_P1;SDS_P2;PMS_P1;PMS_P2;Temp;Humidity;BMP_temperature;BMP_pressure;BME280_temperature;BME280_humidity;BME280_pressure;Samples;Min_cycle;Max_cycle;Signal;HPM_P1;HPM_P2
2022/08/18 00:00:26;;;;;;;20.70;17.23;;;19.80;99.90;;;;;;5027317;28;20041;-74
2022/08/18 00:02:53;;;;;;;22.42;17.60;;;19.80;99.90;;;;;;5023304;28;20056;-73
2022/08/18 00:05:20;;;;;;;18.02;16.13;;;19.70;99.90;;;;;;5026899;28;20038;-74
2022/08/18 00:07:45;;;;;;;19.73;17.60;;;19.80;99.90;;;;;;5026827;28;20054;-74
2022/08/18 00:10:11;;;;;;;22.13;17.40;;;19.70;99.90;;;;;;5023854;28;21516;-73
2022/08/18 00:12:40;;;;;;;18.92;16.92;;;19.70;99.90;;;;;;5028626;28;20489;-73
2022/08/18 00:15:09;;;;;;;19.42;16.55;;;19.70;99.90;;;;;;5025820;28;20097;-73
2022/08/18 00:17:35;;;;;;;22.25;17.17;;;19.70;99.90;;;;;;5027909;28;20532;-74
2022/08/18 00:20:03;;;;;;;21.27;16.48;;;19.70;99.90;;;;;;5025757;28;20073;-73
2022/08/18 00:22:29;;;;;;;18.65;16.63;;;19.70;99.90;;;;;;5026602;28;20046;-74
2022/08/18 00:24:56;;;;;;;21.98;16.92;;;19.70;99.90;;;;;;5024709;28;20082;-73
2022/08/18 00:27:25;;;;;;;22.38;17.83;;;19.70;99.90;;;;;;5024973;28;20084;-73
2022/08/18 00:29:52;;;;;;;21.83;16.60;;;19.70;99.90;;;;;;5023945;28;20161;-73
2022/08/18 00:32:19;;;;;;;;;;;19.70;99.90;;;;;;5032207;28;20107;-73
2022/08/18 00:34:45;;;;;;;17.60;15.60;;;19.60;99.90;;;;;;5023611;28;19935;-74
2022/08/18 00:37:11;;;;;;;20.95;17.13;;;19.60;99.90;;;;;;5026251;28;20045;-74
2022/08/18 00:39:37;;;;;;;20.00;16.35;;;19.50;99.90;;;;;;5026722;28;20056;-73
2022/08/18 00:42:15;;;;;;;19.38;15.88;;;19.60;99.90;;;;;;5019894;28;20421;-74
2022/08/18 00:44:40;;;;;;;19.48;16.27;;;19.60;99.90;;;;;;5034085;28;20507;-74
2022/08/18 00:47:06;;;;;;;17.60;15.30;;;19.50;99.90;;;;;;5029448;28;20049;-74
2022/08/18 00:49:32;;;;;;;19.38;15.90;;;19.50;99.90;;;;;;5030290;28;20048;-74
2022/08/18 00:51:59;;;;;;;21.15;15.85;;;19.50;99.90;;;;;;5030993;28;20049;-74
2022/08/18 00:54:29;;;;;;;14.98;13.55;;;19.50;99.90;;;;;;5028119;28;20045;-74
2022/08/18 00:56:59;;;;;;;20.58;15.80;;;19.40;99.90;;;;;;5030755;28;20515;-74
2022/08/18 00:59:54;;;;;;;18.33;16.42;;;19.40;99.90;;;;;;5025336;28;20076;-73
2022/08/18 01:02:32;;;;;;;20.15;17.70;;;19.40;99.90;;;;;;5020229;28;20357;-73
2022/08/18 01:05:05;;;;;;;18.20;16.30;;;19.30;99.90;;;;;;5016291;28;20558;-74
2022/08/18 01:07:58;;;;;;;26.20;18.35;;;19.30;99.90;;;;;;5026178;28;20045;-73
2022/08/18 01:10:23;;;;;;;28.60;23.70;;;19.30;99.90;;;;;;5029845;28;20053;-74
2022/08/18 01:12:56;;;;;;;26.95;23.45;;;19.20;99.90;;;;;;5012152;28;20499;-73
2022/08/18 01:15:24;;;;;;;27.98;23.48;;;19.20;99.90;;;;;;5028106;28;20087;-73
2022/08/18 01:23:34;;;;;;;30.25;26.67;;;19.20;99.90;;;;;;5029429;28;20045;-74
2022/08/18 01:26:01;;;;;;;28.95;25.95;;;19.20;99.90;;;;;;5030595;28;20053;-74
2022/08/18 01:28:32;;;;;;;30.52;27.05;;;19.20;99.90;;;;;;5028500;28;20521;-74
2022/08/18 01:30:59;;;;;;;28.67;25.77;;;19.20;99.90;;;;;;5025625;28;20057;-74
2022/08/18 01:33:31;;;;;;;32.45;26.80;;;19.20;99.90;;;;;;5027821;28;20607;-74
2022/08/18 01:36:13;;;;;;;31.15;25.90;;;19.20;99.90;;;;;;5020412;28;20116;-74
2022/08/18 01:38:39;;;;;;;29.48;26.52;;;19.30;99.90;;;;;;5025892;28;20493;-73
2022/08/18 01:41:06;;;;;;;31.17;27.73;;;19.30;99.90;;;;;;5026746;28;20397;-74
2022/08/18 01:43:33;;;;;;;31.85;27.75;;;19.30;99.90;;;;;;5018147;28;20056;-74
2022/08/18 01:46:00;;;;;;;32.13;28.75;;;19.30;99.90;;;;;;5028223;28;20560;-73
2022/08/18 01:48:33;;;;;;;34.95;29.70;;;19.30;99.90;;;;;;5029075;28;20116;-74
2022/08/18 01:51:09;;;;;;;32.20;27.58;;;19.30;99.90;;;;;;5028503;28;20038;-74
2022/08/18 01:53:35;;;;;;;34.15;28.27;;;19.30;99.90;;;;;;5028687;28;20045;-74
2022/08/18 01:56:04;;;;;;;32.40;28.03;;;19.30;99.90;;;;;;5024477;28;20168;-73
2022/08/18 01:58:30;;;;;;;31.35;28.17;;;19.30;99.90;;;;;;5022615;28;20094;-73
2022/08/18 02:01:00;;;;;;;31.63;28.27;;;19.30;99.90;;;;;;5027046;28;20053;-74
2022/08/18 02:03:31;;;;;;;31.27;28.05;;;19.30;99.90;;;;;;5030891;28;20044;-74
2022/08/18 02:06:00;;;;;;;30.02;26.85;;;19.30;99.90;;;;;;5027796;28;20135;-74
2022/08/18 02:08:26;;;;;;;31.08;27.85;;;19.40;99.90;;;;;;5030650;28;20041;-74
2022/08/18 02:10:52;;;;;;;31.05;27.85;;;19.40;99.90;;;;;;5027313;28;20083;-74
2022/08/18 02:13:18;;;;;;;33.13;29.65;;;19.40;99.90;;;;;;5028437;28;20441;-74
2022/08/18 02:15:44;;;;;;;32.47;28.90;;;19.40;99.90;;;;;;5028665;28;20050;-74
2022/08/18 02:18:19;;;;;;;31.47;28.33;;;19.40;99.90;;;;;;5027055;28;20132;-74
2022/08/18 02:20:46;;;;;;;32.47;29.02;;;19.40;99.90;;;;;;5028882;28;20718;-74
2022/08/18 02:23:13;;;;;;;31.67;28.20;;;19.40;99.90;;;;;;5027117;28;20050;-74
2022/08/18 02:25:41;;;;;;;33.20;29.80;;;19.40;99.90;;;;;;5029963;28;20072;-74
2022/08/18 02:28:08;;;;;;;32.28;28.98;;;19.40;99.90;;;;;;5026818;28;20337;-74
2022/08/18 02:30:36;;;;;;;31.85;28.45;;;19.40;99.90;;;;;;5029124;28;20132;-73
2022/08/18 02:33:03;;;;;;;32.30;28.95;;;19.40;99.90;;;;;;5026417;28;20489;-74
2022/08/18 02:35:29;;;;;;;32.33;28.80;;;19.40;99.90;;;;;;5028723;28;20121;-74
2022/08/18 02:38:01;;;;;;;30.83;27.88;;;19.40;99.90;;;;;;5027832;28;20537;-74
2022/08/18 02:40:27;;;;;;;29.27;25.92;;;19.40;99.90;;;;;;5029230;28;20088;-74
2022/08/18 02:42:53;;;;;;;30.70;27.30;;;19.30;99.90;;;;;;5028907;28;20123;-74
2022/08/18 02:45:21;;;;;;;29.30;26.15;;;19.30;99.90;;;;;;5025773;28;20054;-74
2022/08/18 02:47:52;;;;;;;28.17;24.10;;;19.30;99.90;;;;;;5024161;28;20412;-74
2022/08/18 02:50:17;;;;;;;31.48;24.88;;;19.30;99.90;;;;;;5014537;28;20305;-74
2022/08/18 02:52:43;;;;;;;29.50;24.45;;;19.30;99.90;;;;;;5024321;28;20045;-74
2022/08/18 02:55:10;;;;;;;26.15;22.73;;;19.30;99.90;;;;;;5024761;28;20037;-74
2022/08/18 02:57:40;;;;;;;26.05;22.80;;;19.20;99.90;;;;;;5012833;28;20046;-74
2022/08/18 03:00:09;;;;;;;29.30;23.00;;;19.20;99.90;;;;;;5025671;28;20046;-74
2022/08/18 03:02:34;;;;;;;26.67;22.52;;;19.20;99.90;;;;;;5027931;28;20107;-74
2022/08/18 03:05:00;;;;;;;27.02;21.90;;;19.20;99.90;;;;;;5024283;28;20049;-74
2022/08/18 03:07:26;;;;;;;29.30;24.00;;;19.20;99.90;;;;;;5023578;28;20513;-74
2022/08/18 03:09:51;;;;;;;28.38;23.35;;;19.20;99.90;;;;;;5015270;28;20481;-74
2022/08/18 03:12:17;;;;;;;28.02;22.63;;;19.20;99.90;;;;;;5029477;28;20420;-74
2022/08/18 03:14:43;;;;;;;29.73;22.80;;;19.20;99.90;;;;;;5026283;28;20037;-74
2022/08/18 03:17:09;;;;;;;29.63;21.83;;;19.10;99.90;;;;;;5027396;28;20041;-75
2022/08/18 03:19:35;;;;;;;32.53;22.08;;;19.10;99.90;;;;;;5027106;28;20099;-74
2022/08/18 03:22:01;;;;;;;32.93;23.13;;;19.10;99.90;;;;;;5025658;28;20113;-75
2022/08/18 03:24:27;;;;;;;29.92;21.63;;;19.10;99.90;;;;;;5025650;28;20112;-74
2022/08/18 03:26:55;;;;;;;29.27;21.00;;;19.10;99.90;;;;;;5025167;28;20041;-74
2022/08/18 03:29:21;;;;;;;23.15;20.08;;;19.10;99.90;;;;;;5022651;28;20107;-74
2022/08/18 03:31:48;;;;;;;27.50;21.30;;;19.10;99.90;;;;;;5025996;28;20054;-73
2022/08/18 03:34:15;;;;;;;29.23;19.00;;;19.10;99.90;;;;;;5023676;28;20057;-74
2022/08/18 03:36:41;;;;;;;26.88;18.67;;;19.10;99.90;;;;;;5011986;28;20132;-74
2022/08/18 03:39:10;;;;;;;24.38;18.52;;;19.20;99.90;;;;;;5025115;28;20647;-75
2022/08/18 03:41:42;;;;;;;28.20;18.30;;;19.20;99.90;;;;;;5028102;28;20048;-74
2022/08/18 03:44:08;;;;;;;28.63;19.23;;;19.20;99.90;;;;;;5027298;28;20396;-75
2022/08/18 03:46:34;;;;;;;28.50;17.88;;;19.10;99.90;;;;;;5027371;28;20492;-74
2022/08/18 03:49:00;;;;;;;27.85;18.38;;;19.20;99.90;;;;;;5026703;28;20044;-74
2022/08/18 03:51:30;;;;;;;27.08;17.02;;;19.20;99.90;;;;;;5019617;28;20045;-74
2022/08/18 03:53:59;;;;;;;24.75;17.52;;;19.10;99.90;;;;;;5020470;28;20056;-74
2022/08/18 03:56:27;;;;;;;27.38;17.35;;;19.10;99.90;;;;;;5025624;28;20129;-74
2022/08/18 03:59:02;;;;;;;26.45;17.15;;;19.10;99.90;;;;;;5026739;28;20045;-74
2022/08/18 04:01:31;;;;;;;26.15;18.25;;;19.20;99.90;;;;;;5027593;28;20155;-73
2022/08/18 04:04:02;;;;;;;25.13;16.77;;;19.10;99.90;;;;;;5027222;28;20076;-74
2022/08/18 04:06:32;;;;;;;20.17;17.02;;;19.10;99.90;;;;;;5029013;28;20041;-74
2022/08/18 04:09:01;;;;;;;19.92;16.15;;;19.10;99.90;;;;;;5022371;28;20049;-74
2022/08/18 04:11:29;;;;;;;27.50;17.50;;;19.10;99.90;;;;;;5025264;28;20085;-73
2022/08/18 04:13:58;;;;;;;20.65;15.80;;;19.10;99.90;;;;;;5028461;28;20085;-73
2022/08/18 04:16:30;;;;;;;27.80;16.25;;;19.10;99.90;;;;;;5027781;28;20384;-74
2022/08/18 04:19:02;;;;;;;25.08;16.25;;;19.10;99.90;;;;;;5032133;28;20045;-74
2022/08/18 04:21:32;;;;;;;23.35;16.23;;;19.10;99.90;;;;;;5031194;28;20256;-74
2022/08/18 04:24:03;;;;;;;27.17;15.95;;;19.10;99.90;;;;;;5025283;28;20046;-74
2022/08/18 04:26:32;;;;;;;28.65;17.85;;;19.10;99.90;;;;;;5030143;28;20050;-74
2022/08/18 04:28:59;;;;;;;22.98;16.40;;;19.10;99.90;;;;;;5029511;28;20053;-73
2022/08/18 04:31:26;;;;;;;23.45;16.30;;;19.10;99.90;;;;;;5016237;28;20045;-74
2022/08/18 04:33:52;;;;;;;23.10;16.25;;;19.00;99.90;;;;;;5029531;28;20061;-74
2022/08/18 04:36:17;;;;;;;25.58;17.35;;;19.00;99.90;;;;;;5031121;28;20054;-74
2022/08/18 04:38:43;;;;;;;23.00;17.02;;;19.00;99.90;;;;;;5032103;28;20041;-74
2022/08/18 04:41:12;;;;;;;26.83;17.02;;;19.00;99.90;;;;;;5030422;28;20835;-73
2022/08/18 04:43:38;;;;;;;24.65;18.55;;;19.00;99.90;;;;;;5028716;28;20083;-73
2022/08/18 04:46:05;;;;;;;22.92;17.30;;;19.00;99.90;;;;;;5029832;28;20115;-72
2022/08/18 04:48:37;;;;;;;26.73;18.08;;;19.00;99.90;;;;;;5033969;28;20175;-74
2022/08/18 04:51:12;;;;;;;29.92;19.55;;;19.00;99.90;;;;;;5026521;28;20127;-74
2022/08/18 04:53:44;;;;;;;30.23;21.77;;;19.00;99.90;;;;;;5023320;28;20095;-74
2022/08/18 04:56:27;;;;;;;27.00;20.40;;;18.90;99.90;;;;;;5029505;28;20943;-74
2022/08/18 04:58:59;;;;;;;24.45;19.77;;;19.00;99.90;;;;;;5029057;28;20053;-74
2022/08/18 05:01:28;;;;;;;30.45;20.60;;;19.00;99.90;;;;;;5029149;28;20077;-74
2022/08/18 05:03:57;;;;;;;27.83;20.40;;;18.90;99.90;;;;;;5026616;28;20150;-74
2022/08/18 05:06:25;;;;;;;25.15;19.70;;;19.00;99.90;;;;;;5029278;28;20128;-74
2022/08/18 05:08:53;;;;;;;27.58;20.98;;;19.00;99.90;;;;;;5031598;28;20072;-74
2022/08/18 05:11:20;;;;;;;25.92;19.50;;;19.00;99.90;;;;;;5030597;28;20497;-74
2022/08/18 05:13:47;;;;;;;25.08;20.30;;;19.00;99.90;;;;;;5029857;28;20087;-73
2022/08/18 05:16:13;;;;;;;32.38;23.38;;;19.10;99.90;;;;;;5030636;28;20435;-73
2022/08/18 05:18:39;;;;;;;28.85;22.27;;;19.10;99.90;;;;;;5024801;28;20046;-73
2022/08/18 05:21:10;;;;;;;32.42;24.85;;;19.10;99.90;;;;;;5010782;28;20071;-74
2022/08/18 05:23:36;;;;;;;30.77;22.40;;;19.10;99.90;;;;;;5024105;28;20045;-74
2022/08/18 05:26:04;;;;;;;28.75;23.17;;;19.10;99.90;;;;;;5010901;28;20155;-73
2022/08/18 05:28:31;;;;;;;31.30;24.08;;;19.10;99.90;;;;;;5020789;28;20060;-73
2022/08/18 05:30:56;;;;;;;30.42;24.35;;;19.10;99.90;;;;;;5031110;28;20037;-73
2022/08/18 05:33:24;;;;;;;30.65;24.02;;;19.20;99.90;;;;;;5030681;28;20133;-74
2022/08/18 05:36:02;;;;;;;34.78;24.65;;;19.20;99.90;;;;;;5017402;28;20133;-73
2022/08/18 05:38:31;;;;;;;33.88;24.33;;;19.20;99.90;;;;;;5024872;28;20076;-74
2022/08/18 05:41:12;;;;;;;36.67;25.30;;;19.30;99.90;;;;;;5035337;28;20380;-73
2022/08/18 05:43:39;;;;;;;31.65;23.60;;;19.30;99.90;;;;;;5050352;28;20053;-73
2022/08/18 05:46:08;;;;;;;35.17;23.60;;;19.30;99.90;;;;;;5033967;28;20040;-73
2022/08/18 05:48:34;;;;;;;30.92;23.00;;;19.30;99.90;;;;;;5030989;28;20400;-73
2022/08/18 05:51:09;;;;;;;30.42;22.90;;;19.40;99.90;;;;;;5030469;28;20102;-74
2022/08/18 05:59:12;;;;;;;32.88;22.55;;;19.40;99.90;;;;;;5028748;28;20053;-73
2022/08/18 06:01:44;;;;;;;27.02;21.63;;;19.40;99.90;;;;;;5029653;28;20049;-74
2022/08/18 06:04:36;;;;;;;28.45;21.17;;;19.40;99.90;;;;;;5022468;28;20505;-73
2022/08/18 06:07:06;;;;;;;26.42;20.92;;;19.40;99.90;;;;;;5021820;28;20044;-74
2022/08/18 06:09:49;;;;;;;25.40;20.40;;;19.50;99.90;;;;;;5034440;28;20133;-75
2022/08/18 06:12:19;;;;;;;30.85;20.33;;;19.50;99.90;;;;;;5025734;28;20085;-75
2022/08/18 06:14:45;;;;;;;27.60;20.33;;;19.50;99.90;;;;;;5023821;28;20072;-73
2022/08/18 06:17:53;;;;;;;28.25;19.88;;;19.60;99.90;;;;;;5022406;28;20127;-72
2022/08/18 06:20:56;;;;;;;21.73;17.98;;;19.70;99.90;;;;;;5022372;28;20061;-72
2022/08/18 06:23:31;;;;;;;24.60;17.90;;;19.60;99.90;;;;;;5014309;28;20076;-72
2022/08/18 06:26:21;;;;;;;24.70;16.95;;;19.70;99.90;;;;;;5021959;28;20072;-72
2022/08/18 06:29:11;;;;;;;20.98;14.57;;;19.70;99.90;;;;;;5022982;28;20046;-71
2022/08/18 06:32:00;;;;;;;23.13;15.02;;;19.80;99.90;;;;;;5021162;28;20131;-72
2022/08/18 06:34:58;;;;;;;21.92;14.02;;;19.80;99.90;;;;;;5022291;28;20187;-72
2022/08/18 06:37:33;;;;;;;17.77;13.80;;;19.90;99.90;;;;;;5024747;28;20053;-72
2022/08/18 06:40:08;;;;;;;21.40;15.15;;;19.90;99.90;;;;;;5026403;28;20053;-71
2022/08/18 06:42:38;;;;;;;17.48;12.55;;;19.90;99.90;;;;;;5028858;28;20042;-72
2022/08/18 06:45:11;;;;;;;20.30;12.80;;;20.00;99.90;;;;;;5017484;28;20042;-72
2022/08/18 06:47:46;;;;;;;19.02;12.50;;;20.00;99.90;;;;;;5023970;28;20083;-72
2022/08/18 06:50:30;;;;;;;19.75;12.07;;;20.00;99.90;;;;;;5021054;28;20561;-72
2022/08/18 06:53:01;;;;;;;14.38;11.32;;;20.00;99.90;;;;;;5025768;28;20037;-72
2022/08/18 06:55:41;;;;;;;14.73;10.20;;;20.00;99.90;;;;;;5029420;28;20489;-71
2022/08/18 06:58:29;;;;;;;14.60;10.73;;;20.10;99.90;;;;;;5017977;28;20103;-72
2022/08/18 07:01:00;;;;;;;15.85;10.70;;;20.10;99.90;;;;;;5022653;28;20041;-71
2022/08/18 07:03:38;;;;;;;12.82;9.88;;;20.10;99.90;;;;;;5028747;28;20053;-71
2022/08/18 07:06:20;;;;;;;14.43;9.77;;;20.20;99.90;;;;;;5025533;28;20071;-75
2022/08/18 07:08:48;;;;;;;12.30;9.27;;;20.20;99.90;;;;;;5026104;28;20052;-75
2022/08/18 07:11:28;;;;;;;14.65;9.15;;;20.20;99.90;;;;;;5024799;28;20052;-82
2022/08/18 07:14:16;;;;;;;10.32;8.25;;;20.30;99.90;;;;;;5018734;28;20053;-80
2022/08/18 07:16:42;;;;;;;10.45;8.75;;;20.30;99.90;;;;;;5018577;28;20067;-89
2022/08/18 07:19:08;;;;;;;12.60;9.13;;;20.40;99.90;;;;;;5027052;28;20045;-86
2022/08/18 07:21:36;;;;;;;14.40;9.23;;;20.50;99.90;;;;;;5022389;28;20053;-85
2022/08/18 07:24:11;;;;;;;15.52;9.35;;;20.50;99.90;;;;;;5025954;28;20303;-84
2022/08/18 07:26:56;;;;;;;10.60;8.23;;;20.50;99.90;;;;;;5023562;28;20072;-88
2022/08/18 07:29:32;;;;;;;13.00;9.05;;;20.50;99.90;;;;;;5022184;28;20053;-86
2022/08/18 07:32:04;;;;;;;13.45;7.93;;;20.60;99.90;;;;;;5028639;28;20077;-88
2022/08/18 07:34:39;;;;;;;11.25;7.88;;;20.50;99.90;;;;;;5029521;28;20037;-85
2022/08/18 07:37:17;;;;;;;14.02;8.10;;;20.60;99.90;;;;;;5026761;28;20045;-85
2022/08/18 07:40:09;;;;;;;14.25;7.82;;;20.60;99.90;;;;;;5028990;28;20049;-84
2022/08/18 07:42:47;;;;;;;12.27;7.85;;;20.60;99.90;;;;;;5025590;28;20585;-83
2022/08/18 07:45:22;;;;;;;11.65;7.88;;;20.60;99.90;;;;;;5035125;28;20120;-83
2022/08/18 07:48:22;;;;;;;11.82;7.40;;;20.70;99.90;;;;;;5026931;28;20049;-84
2022/08/18 07:50:59;;;;;;;12.25;8.02;;;20.70;99.90;;;;;;5018249;28;20053;-83
2022/08/18 07:53:46;;;;;;;11.43;7.13;;;20.70;99.90;;;;;;5027274;28;20072;-84
2022/08/18 07:56:23;;;;;;;11.13;6.32;;;20.70;99.90;;;;;;5023001;28;20049;-84
2022/08/18 07:58:58;;;;;;;9.95;6.32;;;20.70;99.90;;;;;;5026570;28;20053;-86
2022/08/18 08:02:10;;;;;;;13.65;6.57;;;20.70;99.90;;;;;;5018694;28;20088;-79
2022/08/18 08:04:51;;;;;;;10.13;6.85;;;20.70;99.90;;;;;;5015950;28;20045;-79
2022/08/18 08:07:23;;;;;;;9.00;6.82;;;20.80;99.90;;;;;;5023604;28;20041;-77
2022/08/18 08:10:08;;;;;;;10.48;7.07;;;20.80;99.90;;;;;;5024385;28;20523;-78
2022/08/18 08:12:57;;;;;;;11.05;6.72;;;20.90;99.90;;;;;;5029698;28;20132;-79
2022/08/18 08:15:55;;;;;;;11.48;7.00;;;21.00;99.90;;;;;;5029100;28;20136;-79
2022/08/18 08:18:43;;;;;;;11.77;6.82;;;21.10;99.90;;;;;;5018019;28;20053;-79
2022/08/18 08:21:13;;;;;;;9.80;6.53;;;21.10;99.90;;;;;;5023696;28;20049;-79
2022/08/18 08:24:00;;;;;;;15.18;6.93;;;21.10;99.90;;;;;;5029121;28;20056;-80
2022/08/18 08:26:48;;;;;;;9.77;7.03;;;21.10;99.90;;;;;;5028433;28;20094;-78
2022/08/18 08:29:26;;;;;;;10.60;6.70;;;21.10;99.90;;;;;;5024288;28;20064;-78
2022/08/18 08:32:05;;;;;;;11.52;7.10;;;21.20;99.90;;;;;;5022699;28;20440;-78
2022/08/18 08:34:45;;;;;;;10.30;6.40;;;21.30;99.90;;;;;;5019214;28;20516;-80
2022/08/18 08:37:18;;;;;;;10.38;6.35;;;21.40;99.90;;;;;;5023488;28;20059;-85
2022/08/18 08:40:11;;;;;;;10.23;6.80;;;21.40;99.90;;;;;;5023097;28;20041;-81
2022/08/18 08:43:06;;;;;;;9.57;5.90;;;21.40;99.90;;;;;;5027991;28;20052;-85
2022/08/18 08:45:37;;;;;;;8.60;5.55;;;21.40;99.90;;;;;;5009548;28;20072;-79
2022/08/18 08:48:16;;;;;;;9.80;5.90;;;21.40;99.90;;;;;;5020207;28;20052;-79
2022/08/18 08:51:05;;;;;;;8.77;5.90;;;21.50;99.90;;;;;;5020452;28;20578;-79
2022/08/18 08:53:58;;;;;;;7.55;5.30;;;21.60;99.90;;;;;;5020119;28;20176;-79
2022/08/18 08:56:29;;;;;;;9.23;5.32;;;21.70;99.90;;;;;;5019615;28;20764;-79
2022/08/18 08:59:01;;;;;;;7.82;5.20;;;21.80;99.90;;;;;;5024278;28;20052;-79
2022/08/18 09:01:39;;;;;;;8.77;4.60;;;21.80;99.90;;;;;;5026310;28;20041;-80
2022/08/18 09:04:36;;;;;;;6.65;4.65;;;21.90;99.90;;;;;;5031404;28;20038;-80
2022/08/18 09:07:38;;;;;;;9.75;4.60;;;21.90;99.90;;;;;;5026133;28;20041;-79
2022/08/18 09:10:38;;;;;;;7.45;4.60;;;21.90;99.90;;;;;;5026641;28;21509;-77
2022/08/18 09:13:30;;;;;;;7.47;5.10;;;21.90;99.90;;;;;;5019635;28;20095;-78
2022/08/18 09:16:10;;;;;;;9.00;5.82;;;21.90;99.90;;;;;;5026999;28;20052;-79
2022/08/18 09:19:20;;;;;;;11.02;6.00;;;22.00;99.90;;;;;;5025900;28;20033;-79
2022/08/18 09:21:59;;;;;;;8.48;5.80;;;22.00;99.90;;;;;;5004531;28;20092;-85
2022/08/18 09:24:31;;;;;;;10.30;5.43;;;22.00;99.90;;;;;;4981545;28;20137;-82
2022/08/18 09:27:03;;;;;;;8.57;4.85;;;22.10;99.90;;;;;;5009891;28;20080;-86
2022/08/18 09:29:38;;;;;;;8.60;5.30;;;22.20;99.90;;;;;;5025605;28;20056;-84
2022/08/18 09:32:18;;;;;;;9.70;5.40;;;22.20;99.90;;;;;;5029872;28;20133;-82
2022/08/18 09:35:06;;;;;;;10.55;5.50;;;22.30;99.90;;;;;;5027642;28;20073;-82
2022/08/18 09:37:46;;;;;;;9.20;5.20;;;22.30;99.90;;;;;;5028412;28;20046;-82
2022/08/18 09:43:12;;;;;;;6.93;4.43;;;22.30;99.90;;;;;;5027917;28;20497;-82
2022/08/18 09:45:59;;;;;;;10.02;5.00;;;22.10;99.90;;;;;;5038705;28;20073;-78
2022/08/18 09:48:31;;;;;;;6.38;4.05;;;22.00;99.90;;;;;;5027370;28;20505;-80
2022/08/18 09:51:30;;;;;;;5.90;3.42;;;21.80;99.90;;;;;;5029973;28;20080;-78
2022/08/18 09:54:16;;;;;;;5.60;3.55;;;21.60;99.90;;;;;;5026230;28;20054;-80
2022/08/18 09:56:48;;;;;;;6.15;3.83;;;21.30;99.90;;;;;;5023148;28;20041;-75
2022/08/18 09:59:37;;;;;;;7.35;4.65;;;21.10;99.90;;;;;;5022617;28;20963;-77
2022/08/18 10:02:05;;;;;;;6.85;4.57;;;21.00;99.90;;;;;;5026035;28;20053;-78
2022/08/18 10:04:47;;;;;;;6.55;4.60;;;20.90;99.90;;;;;;5030758;28;20049;-77
2022/08/18 10:07:30;;;;;;;6.70;5.00;;;21.00;99.90;;;;;;5028355;28;20049;-76
2022/08/18 10:10:19;;;;;;;7.40;5.35;;;20.90;99.90;;;;;;5017786;28;20095;-74
2022/08/18 10:13:13;;;;;;;11.63;6.32;;;21.00;99.90;;;;;;4979793;28;20521;-74
2022/08/18 10:16:06;;;;;;;9.35;5.90;;;20.90;99.90;;;;;;5028983;28;20060;-75
2022/08/18 10:18:49;;;;;;;7.43;6.60;;;20.80;99.90;;;;;;5012481;28;20140;-81
2022/08/18 10:21:27;;;;;;;8.18;6.55;;;20.70;99.90;;;;;;5027695;28;20060;-79
2022/08/18 10:23:57;;;;;;;7.47;6.68;;;20.80;99.90;;;;;;5030274;28;20046;-77
2022/08/18 10:26:29;;;;;;;10.18;8.20;;;20.90;99.90;;;;;;5018575;28;20544;-79
2022/08/18 10:29:05;;;;;;;10.05;7.63;;;21.00;99.90;;;;;;5017927;28;20045;-78
2022/08/18 10:31:54;;;;;;;8.75;6.60;;;21.10;99.90;;;;;;5029575;28;20044;-77
2022/08/18 10:34:47;;;;;;;7.82;5.47;;;21.20;99.90;;;;;;5025671;28;20404;-79
2022/08/18 10:37:22;;;;;;;8.30;5.30;;;21.20;99.90;;;;;;5019237;28;20065;-78
2022/08/18 10:39:52;;;;;;;7.75;6.10;;;21.30;99.90;;;;;;5017130;28;20045;-74
2022/08/18 10:42:26;;;;;;;9.68;7.43;;;21.40;99.90;;;;;;5034264;28;20057;-74
2022/08/18 10:45:06;;;;;;;11.55;8.40;;;21.40;99.90;;;;;;5027346;28;20409;-78
2022/08/18 10:47:32;;;;;;;10.40;9.30;;;21.50;99.90;;;;;;5029443;28;20400;-76
2022/08/18 10:50:18;;;;;;;13.10;10.52;;;21.60;99.90;;;;;;5027436;28;20049;-77
2022/08/18 10:52:43;;;;;;;11.63;10.05;;;21.70;99.90;;;;;;5028788;28;20409;-76
2022/08/18 10:55:55;;;;;;;11.90;9.95;;;21.70;99.90;;;;;;5029748;28;20160;-81
2022/08/18 10:58:35;;;;;;;11.88;10.63;;;21.80;99.90;;;;;;5013847;28;20544;-75
2022/08/18 11:01:08;;;;;;;14.05;9.90;;;21.80;99.90;;;;;;5025068;28;20044;-77
2022/08/18 11:03:58;;;;;;;14.88;9.70;;;21.90;99.90;;;;;;5029505;28;20046;-78
2022/08/18 11:06:25;;;;;;;14.02;10.30;;;22.00;99.90;;;;;;5017957;28;20085;-75
2022/08/18 11:09:00;;;;;;;13.40;10.70;;;22.00;99.90;;;;;;5016051;28;20049;-76
2022/08/18 11:11:36;;;;;;;13.40;10.77;;;22.00;99.90;;;;;;5026333;28;20172;-79
2022/08/18 11:14:28;;;;;;;13.02;10.68;;;22.00;99.90;;;;;;5022884;28;20053;-88
2022/08/18 11:17:23;;;;;;;14.95;11.40;;;22.00;99.90;;;;;;5028252;28;20052;-85
2022/08/18 11:19:51;;;;;;;12.10;10.88;;;22.10;99.90;;;;;;5016278;28;20042;-83
2022/08/18 11:22:36;;;;;;;11.23;9.88;;;22.20;99.90;;;;;;5025086;28;20049;-81
2022/08/18 11:25:17;;;;;;;10.73;9.00;;;22.30;99.90;;;;;;5028529;28;20497;-79
2022/08/18 11:27:46;;;;;;;12.25;7.57;;;22.30;99.90;;;;;;5021375;28;20045;-78
2022/08/18 11:30:15;;;;;;;9.93;8.15;;;22.40;99.90;;;;;;5022656;28;20182;-78
2022/08/18 11:32:42;;;;;;;11.38;8.23;;;22.50;99.90;;;;;;5023887;28;20049;-78
2022/08/18 11:35:31;;;;;;;10.53;6.57;;;22.60;99.90;;;;;;5025082;28;20615;-78
2022/08/18 11:37:59;;;;;;;10.43;7.22;;;22.60;99.90;;;;;;5025298;28;20088;-78
2022/08/18 11:40:36;;;;;;;9.88;6.40;;;22.70;99.90;;;;;;5026326;28;20473;-77
2022/08/18 11:43:08;;;;;;;10.50;7.07;;;22.80;99.90;;;;;;5025290;28;20053;-77
2022/08/18 11:46:09;;;;;;;11.98;6.93;;;23.00;99.90;;;;;;5024808;28;20095;-77
2022/08/18 11:48:41;;;;;;;9.52;5.70;;;23.10;99.90;;;;;;5025220;28;20053;-78
2022/08/18 11:51:30;;;;;;;8.90;4.95;;;23.20;99.90;;;;;;5026358;28;20076;-78
2022/08/18 11:54:11;;;;;;;8.90;5.13;;;23.30;99.90;;;;;;5027646;28;20052;-78
2022/08/18 11:56:37;;;;;;;6.38;4.10;;;23.50;99.90;;;;;;5027253;28;20056;-78
2022/08/18 11:59:06;;;;;;;5.63;3.90;;;23.50;99.90;;;;;;5026434;28;20041;-77
2022/08/18 12:01:47;;;;;;;6.95;3.60;;;23.40;99.90;;;;;;5024815;28;20053;-77
2022/08/18 12:04:13;;;;;;;7.28;3.60;;;23.30;99.90;;;;;;5025667;28;20144;-78
2022/08/18 12:07:05;;;;;;;5.28;3.60;;;23.10;99.90;;;;;;5026762;28;20072;-78
2022/08/18 12:09:43;;;;;;;5.57;3.58;;;23.10;99.90;;;;;;5013495;28;20627;-78
2022/08/18 12:12:22;;;;;;;5.28;3.10;;;23.00;99.90;;;;;;5027387;28;20124;-77
2022/08/18 12:15:04;;;;;;;6.00;3.15;;;23.00;99.90;;;;;;5014339;28;20154;-78
2022/08/18 12:17:31;;;;;;;4.43;3.00;;;22.90;99.90;;;;;;5024836;28;20045;-78
2022/08/18 12:19:57;;;;;;;5.97;3.47;;;22.90;99.90;;;;;;5022579;28;20047;-77
2022/08/18 12:22:26;;;;;;;7.40;3.80;;;22.90;99.90;;;;;;5026268;28;20060;-78
2022/08/18 12:24:53;;;;;;;5.80;3.30;;;23.00;99.90;;;;;;5026410;28;20046;-77
2022/08/18 12:27:22;;;;;;;3.58;2.90;;;23.00;99.90;;;;;;5026377;28;20420;-78
2022/08/18 12:29:49;;;;;;;4.95;2.47;;;23.10;99.90;;;;;;5027287;28;20137;-78
2022/08/18 12:32:15;;;;;;;4.05;2.30;;;23.10;99.90;;;;;;5026131;28;20405;-76
2022/08/18 12:34:40;;;;;;;4.90;2.30;;;23.10;99.90;;;;;;5022760;28;20040;-76
2022/08/18 12:37:09;;;;;;;4.38;2.00;;;23.20;99.90;;;;;;5025433;28;20485;-78
2022/08/18 12:39:35;;;;;;;7.72;2.67;;;23.30;99.90;;;;;;5022229;28;20128;-82
2022/08/18 12:42:01;;;;;;;4.75;2.40;;;23.40;99.90;;;;;;5025903;28;20136;-78
2022/08/18 12:44:27;;;;;;;5.18;2.47;;;23.50;99.90;;;;;;5032760;28;20110;-81
2022/08/18 12:46:54;;;;;;;6.13;3.08;;;23.60;99.90;;;;;;5034466;28;20044;-80
2022/08/18 12:49:23;;;;;;;6.05;2.47;;;23.80;99.90;;;;;;5029157;28;20107;-79
2022/08/18 12:51:49;;;;;;;4.93;2.20;;;23.90;99.90;;;;;;5032426;28;20041;-79
2022/08/18 12:54:15;;;;;;;7.57;3.13;;;23.80;99.90;;;;;;5031222;28;20068;-79
2022/08/18 12:56:41;;;;;;;4.13;2.30;;;23.70;99.90;;;;;;5028428;28;20034;-81
2022/08/18 12:59:09;;;;;;;4.55;2.28;;;23.70;99.90;;;;;;5026682;28;20041;-85
2022/08/18 13:01:36;;;;;;;;;;;23.80;99.90;;;;;;5021272;28;20128;-82
2022/08/18 13:04:02;;;;;;;4.53;2.55;;;23.80;99.90;;;;;;5030108;28;20371;-82
2022/08/18 13:06:28;;;;;;;4.97;2.40;;;23.80;99.90;;;;;;5026703;28;20037;-79
2022/08/18 13:08:54;;;;;;;3.60;2.35;;;24.00;99.90;;;;;;5029485;28;20478;-80
2022/08/18 13:11:22;;;;;;;5.53;2.42;;;24.20;99.90;;;;;;5029907;28;20095;-80
2022/08/18 13:13:49;;;;;;;7.63;2.60;;;24.30;99.90;;;;;;5028822;28;20082;-80
2022/08/18 13:16:16;;;;;;;4.72;2.40;;;24.40;99.90;;;;;;5028349;28;20045;-84
2022/08/18 13:18:42;;;;;;;4.00;2.20;;;24.40;99.90;;;;;;5029018;28;20056;-83
2022/08/18 13:21:12;;;;;;;3.65;2.15;;;24.50;99.90;;;;;;5028891;28;20124;-83
2022/08/18 13:23:39;;;;;;;3.97;2.42;;;24.40;99.90;;;;;;5030435;28;20057;-83